Absarokee, Montana
Current Conditions -  °F | °C
As of 2:34 AM on Thursday 27 Nov 2014 (Local Time) from KBIL Reporting Station
Light Fog Light Fog  
Wind Chill: 27°   Ceiling: 11000
Heat Index: 27°   Visibility: 0.5mi
Dew Point: 26°   Wind: 0mph
Humidity: 96%   Direction: NA
Pressure: 30.02"   Gusts: NA
Location:  45.53°N, 109.43°W
Report Text: KBIL 270934Z 00000KT 1/2SM R10L/2000V4000FT BCFG SCT002 BKN110 M03/M03 A3002 RMK AO2 VIS SE-W 10 BCFG NW-E T10281033
Loading
Personal Weather Stations






























Interactive Weather Map New forecast layout! Learn more

10-Day Weather Forecast

Advertisements
Track Severe Weather on mobile